createdAt,value
2023-04-09T00:01:58.953Z,48.70
2023-04-09T00:05:02.984Z,47.80
2023-04-09T00:08:06.581Z,52.70
2023-04-09T00:11:09.631Z,46.17
2023-04-09T00:14:13.916Z,52.00
2023-04-09T00:17:17.029Z,50.13
2023-04-09T00:20:20.099Z,54.00
2023-04-09T00:23:23.299Z,50.90
2023-04-09T00:26:26.562Z,51.87
2023-04-09T00:29:31.365Z,56.77
2023-04-09T00:32:34.644Z,57.63
2023-04-09T00:35:37.832Z,50.10
2023-04-09T00:38:40.829Z,61.13
2023-04-09T00:41:44.110Z,55.63
2023-04-09T00:44:48.460Z,54.60
2023-04-09T00:47:53.652Z,53.20
2023-04-09T00:50:56.825Z,55.60
2023-04-09T00:54:00.053Z,50.80
2023-04-09T00:57:05.092Z,50.90
2023-04-09T01:00:14.766Z,53.03
2023-04-09T01:03:18.317Z,50.90
2023-04-09T01:06:29.368Z,49.70
2023-04-09T01:09:38.316Z,51.23
2023-04-09T01:12:56.140Z,54.17
2023-04-09T01:16:03.163Z,52.13
2023-04-09T01:19:20.368Z,55.97
2023-04-09T01:22:34.701Z,53.00
2023-04-09T01:25:54.867Z,49.07
2023-04-09T01:29:01.610Z,52.37
2023-04-09T01:32:08.262Z,59.33
2023-04-09T01:35:13.439Z,53.63
2023-04-09T01:38:20.945Z,50.70
2023-04-09T01:41:26.041Z,53.87
2023-04-09T01:44:31.373Z,54.73
2023-04-09T01:47:35.563Z,52.33
2023-04-09T01:50:39.200Z,53.10
2023-04-09T01:53:42.789Z,51.97
2023-04-09T01:56:49.019Z,56.37
2023-04-09T01:59:53.531Z,57.30
2023-04-09T02:03:01.363Z,53.87
2023-04-09T02:06:14.456Z,53.90
2023-04-09T02:09:19.821Z,59.80
2023-04-09T02:12:24.139Z,58.83
2023-04-09T02:15:32.119Z,60.47
2023-04-09T02:18:35.366Z,55.97
2023-04-09T02:21:38.348Z,55.43
2023-04-09T02:24:41.649Z,57.30
2023-04-09T02:27:44.739Z,58.43
2023-04-09T02:30:49.131Z,57.83
2023-04-09T02:33:54.166Z,54.93
2023-04-09T02:36:57.830Z,58.20
2023-04-09T02:40:00.840Z,53.83
2023-04-09T02:43:04.038Z,56.73
2023-04-09T02:46:08.866Z,56.67
2023-04-09T02:49:12.882Z,56.77
2023-04-09T02:52:15.946Z,53.20
2023-04-09T02:55:20.170Z,59.80
2023-04-09T02:58:23.258Z,57.47
2023-04-09T03:01:27.747Z,54.70
2023-04-09T03:04:30.731Z,55.27
2023-04-09T03:07:33.763Z,56.63
2023-04-09T03:10:36.798Z,54.50
2023-04-09T03:13:39.777Z,55.37
2023-04-09T03:16:44.277Z,62.00
2023-04-09T03:19:47.308Z,52.43
2023-04-09T03:22:52.095Z,57.17
2023-04-09T03:26:13.273Z,61.70
2023-04-09T03:29:22.459Z,57.67
2023-04-09T03:32:27.395Z,65.33
2023-04-09T03:35:31.621Z,70.90
2023-04-09T03:38:36.599Z,72.00
2023-04-09T03:41:46.193Z,66.83
2023-04-09T03:44:55.253Z,64.73
2023-04-09T03:48:12.780Z,65.47
2023-04-09T03:51:16.394Z,69.73
2023-04-09T03:54:25.701Z,69.20
2023-04-09T03:57:30.716Z,66.87
2023-04-09T04:00:34.538Z,75.63
2023-04-09T04:03:59.399Z,73.63
2023-04-09T04:07:08.698Z,74.33
2023-04-09T04:10:16.668Z,71.40
2023-04-09T04:13:23.001Z,68.43
2023-04-09T04:16:32.786Z,67.47
2023-04-09T04:19:39.698Z,63.60
2023-04-09T04:22:42.755Z,65.33
2023-04-09T04:25:46.155Z,54.60
2023-04-09T04:28:54.080Z,56.00
2023-04-09T04:32:09.701Z,54.67
2023-04-09T04:35:15.776Z,60.40
2023-04-09T04:38:19.025Z,86.23
2023-04-09T04:41:22.068Z,81.93
2023-04-09T04:44:33.053Z,83.30
2023-04-09T04:47:46.892Z,62.03
2023-04-09T04:51:01.063Z,84.97
2023-04-09T04:54:10.879Z,86.33
2023-04-09T04:57:14.843Z,64.77
2023-04-09T05:00:18.828Z,70.77
2023-04-09T05:03:23.601Z,84.70
2023-04-09T05:06:37.236Z,65.00
2023-04-09T05:09:50.436Z,76.20
2023-04-09T05:12:53.582Z,63.67
2023-04-09T05:16:05.471Z,67.67
2023-04-09T05:19:10.178Z,84.20
2023-04-09T05:22:17.537Z,78.77
2023-04-09T05:25:21.806Z,64.90
2023-04-09T05:28:29.593Z,80.20
2023-04-09T05:31:43.044Z,78.20
2023-04-09T05:34:54.540Z,83.80
2023-04-09T05:37:59.677Z,72.53
2023-04-09T05:41:03.009Z,78.57
2023-04-09T05:44:06.665Z,73.23
2023-04-09T05:47:10.039Z,84.07
2023-04-09T05:50:38.014Z,86.57
2023-04-09T05:53:53.142Z,78.87
2023-04-09T05:56:57.390Z,92.17
2023-04-09T06:00:01.086Z,73.30
2023-04-09T06:03:04.558Z,90.50
2023-04-09T06:06:10.836Z,83.83
2023-04-09T06:09:15.145Z,84.43
2023-04-09T06:12:18.093Z,75.53
2023-04-09T06:15:21.703Z,72.27
2023-04-09T06:18:25.649Z,75.63
2023-04-09T06:21:28.644Z,72.10
2023-04-09T06:24:34.055Z,79.77
2023-04-09T06:27:37.015Z,77.10
2023-04-09T06:30:40.064Z,79.63
2023-04-09T06:33:43.138Z,86.23
2023-04-09T06:36:46.215Z,90.37
2023-04-09T06:40:00.531Z,81.03
2023-04-09T06:43:04.190Z,81.00
2023-04-09T06:46:17.312Z,75.93
2023-04-09T06:49:20.393Z,80.03
2023-04-09T06:52:23.405Z,76.70
2023-04-09T06:55:27.902Z,79.47
2023-04-09T06:58:30.930Z,84.37
2023-04-09T07:01:35.602Z,75.80
2023-04-09T07:04:38.844Z,63.93
2023-04-09T07:07:41.919Z,76.40
2023-04-09T07:10:47.327Z,71.03
2023-04-09T07:13:53.679Z,73.43
2023-04-09T07:16:57.261Z,70.93
2023-04-09T07:20:00.351Z,73.77
2023-04-09T07:23:03.342Z,74.67
2023-04-09T07:26:07.879Z,63.67
2023-04-09T07:29:11.027Z,72.47
2023-04-09T07:32:13.997Z,67.57
2023-04-09T07:35:18.540Z,72.17
2023-04-09T07:38:22.127Z,68.93
2023-04-09T07:41:26.485Z,72.43
2023-04-09T07:44:29.506Z,66.60
2023-04-09T07:47:32.989Z,66.07
2023-04-09T07:50:36.373Z,71.40
2023-04-09T07:53:39.338Z,63.30
2023-04-09T07:56:43.736Z,64.00
2023-04-09T07:59:47.154Z,60.27
2023-04-09T08:02:53.118Z,63.43
2023-04-09T08:05:56.358Z,65.27
2023-04-09T08:08:59.354Z,66.77
2023-04-09T08:12:04.452Z,63.70
2023-04-09T08:15:08.754Z,63.17
2023-04-09T08:18:12.148Z,65.83
2023-04-09T08:21:15.415Z,61.73
2023-04-09T08:24:18.456Z,66.87
2023-04-09T08:27:22.948Z,64.90
2023-04-09T08:30:26.282Z,66.03
2023-04-09T08:33:30.234Z,64.67
2023-04-09T08:36:35.348Z,62.33
2023-04-09T08:39:38.486Z,58.63
2023-04-09T08:42:46.606Z,59.70
2023-04-09T08:45:49.697Z,55.83
2023-04-09T08:48:53.622Z,61.50
2023-04-09T08:51:57.023Z,64.40
2023-04-09T08:55:00.379Z,64.30
2023-04-09T08:58:08.281Z,59.30
2023-04-09T09:01:25.965Z,58.77
2023-04-09T09:04:46.410Z,56.57
2023-04-09T09:07:55.202Z,56.47
2023-04-09T09:10:58.539Z,53.77
2023-04-09T09:14:05.559Z,58.97
2023-04-09T09:17:08.806Z,54.57
2023-04-09T09:20:21.687Z,55.77
2023-04-09T09:23:37.635Z,51.27
2023-04-09T09:26:40.955Z,57.23
2023-04-09T09:29:45.549Z,52.80
2023-04-09T09:32:52.429Z,49.37
2023-04-09T09:35:57.672Z,54.60
2023-04-09T09:39:05.524Z,52.57
2023-04-09T09:42:10.395Z,51.67
2023-04-09T09:45:20.528Z,51.20
2023-04-09T09:48:23.500Z,51.57
2023-04-09T09:51:32.617Z,51.87
2023-04-09T09:54:42.696Z,50.10
2023-04-09T09:57:50.494Z,45.50
2023-04-09T10:00:57.460Z,46.37
2023-04-09T10:04:02.650Z,46.73
2023-04-09T10:07:08.258Z,45.90
2023-04-09T10:10:11.727Z,42.23
2023-04-09T10:13:22.631Z,44.63
2023-04-09T10:16:28.203Z,44.83
2023-04-09T10:19:32.192Z,42.03
2023-04-09T10:22:36.805Z,43.53
2023-04-09T10:25:40.008Z,44.80
2023-04-09T10:28:44.549Z,40.73
2023-04-09T10:32:07.443Z,39.50
2023-04-09T10:35:11.146Z,43.60
2023-04-09T10:38:16.027Z,43.70
2023-04-09T10:41:26.326Z,41.57
2023-04-09T10:44:31.789Z,39.10
2023-04-09T10:47:38.001Z,42.07
2023-04-09T10:50:44.472Z,40.17
2023-04-09T10:53:47.633Z,38.30
2023-04-09T10:57:13.620Z,37.97
2023-04-09T11:00:18.702Z,37.97
2023-04-09T11:03:30.239Z,33.43
2023-04-09T11:06:37.041Z,34.37
2023-04-09T11:09:42.449Z,35.63
2023-04-09T11:12:47.752Z,34.37
2023-04-09T11:15:51.173Z,35.20
2023-04-09T11:18:56.166Z,37.97
2023-04-09T11:21:59.932Z,38.10
2023-04-09T11:25:03.183Z,37.50
2023-04-09T11:28:08.442Z,43.00
2023-04-09T11:31:11.588Z,47.80
2023-04-09T11:34:17.377Z,37.73
2023-04-09T11:37:20.550Z,37.53
2023-04-09T11:40:25.749Z,34.60
2023-04-09T11:43:28.766Z,31.23
2023-04-09T11:46:32.699Z,33.03
2023-04-09T11:49:38.321Z,30.37
2023-04-09T11:52:42.302Z,29.87
2023-04-09T11:55:49.548Z,29.40
2023-04-09T11:58:52.726Z,31.77
2023-04-09T12:01:58.640Z,33.67
2023-04-09T12:05:06.355Z,29.97
2023-04-09T12:08:10.358Z,28.23
2023-04-09T12:11:17.957Z,29.80
2023-04-09T12:14:23.455Z,29.43
2023-04-09T12:17:27.053Z,26.83
2023-04-09T12:20:35.191Z,28.27
2023-04-09T12:23:38.260Z,31.33
2023-04-09T12:26:41.256Z,27.92
2023-04-09T12:29:44.281Z,30.77
2023-04-09T12:32:47.362Z,29.17
2023-04-09T12:35:51.807Z,28.75
2023-04-09T12:38:54.965Z,26.75
2023-04-09T12:41:58.026Z,28.60
2023-04-09T12:45:01.181Z,26.70
2023-04-09T12:48:04.306Z,28.92
2023-04-09T12:51:11.154Z,28.52
2023-04-09T12:54:16.931Z,27.63
2023-04-09T12:57:19.933Z,29.00
2023-04-09T13:00:22.953Z,27.58
2023-04-09T13:03:27.520Z,29.45
2023-04-09T13:06:32.015Z,30.08
2023-04-09T13:09:36.460Z,28.17
2023-04-09T13:12:42.562Z,28.67
2023-04-09T13:15:46.623Z,29.42
2023-04-09T13:18:49.787Z,28.35
2023-04-09T13:21:54.091Z,29.10
2023-04-09T13:24:57.384Z,28.05
2023-04-09T13:28:01.026Z,26.98
2023-04-09T13:31:04.439Z,29.73
2023-04-09T13:34:10.493Z,28.45
2023-04-09T13:37:14.773Z,28.38
2023-04-09T13:40:18.091Z,31.88
2023-04-09T13:43:21.149Z,25.90
2023-04-09T13:46:26.074Z,26.80
2023-04-09T13:49:30.690Z,23.92
2023-04-09T13:52:35.053Z,27.67
2023-04-09T13:55:38.388Z,30.58
2023-04-09T13:58:41.687Z,24.58
2023-04-09T14:01:44.658Z,27.45
2023-04-09T14:04:48.250Z,26.40
2023-04-09T14:07:52.826Z,26.27
2023-04-09T14:10:56.762Z,28.80
2023-04-09T14:13:59.856Z,27.08
2023-04-09T14:17:03.103Z,23.17
2023-04-09T14:20:07.502Z,22.45
2023-04-09T14:23:11.836Z,25.40
2023-04-09T14:26:16.112Z,29.58
2023-04-09T14:29:19.111Z,25.42
2023-04-09T14:32:22.557Z,24.60
2023-04-09T14:35:26.177Z,22.83
2023-04-09T14:38:30.640Z,25.08
2023-04-09T14:41:36.591Z,22.70
2023-04-09T14:44:39.885Z,21.75
2023-04-09T14:47:42.875Z,25.52
2023-04-09T14:50:45.819Z,25.08
2023-04-09T14:53:53.190Z,24.90
2023-04-09T14:56:57.122Z,24.40
2023-04-09T15:00:00.128Z,23.70
2023-04-09T15:03:03.919Z,23.95
2023-04-09T15:06:07.536Z,23.73
2023-04-09T15:09:12.136Z,21.17
2023-04-09T15:12:16.762Z,19.42
2023-04-09T15:15:20.103Z,21.27
2023-04-09T15:18:23.182Z,20.95
2023-04-09T15:21:27.031Z,21.48
2023-04-09T15:24:31.364Z,21.80
2023-04-09T15:27:34.556Z,20.23
2023-04-09T15:30:37.572Z,20.10
2023-04-09T15:33:43.715Z,19.65
2023-04-09T15:36:47.228Z,19.20
2023-04-09T15:39:51.629Z,22.52
2023-04-09T15:42:54.873Z,21.67
2023-04-09T15:45:57.981Z,22.27
2023-04-09T15:49:01.057Z,20.95
2023-04-09T15:52:04.376Z,19.45
2023-04-09T15:55:10.176Z,22.35
2023-04-09T15:58:13.472Z,21.30
2023-04-09T16:01:17.287Z,25.50
2023-04-09T16:04:20.477Z,28.40
2023-04-09T16:07:23.899Z,26.17
2023-04-09T16:10:28.188Z,25.93
2023-04-09T16:13:31.357Z,26.80
2023-04-09T16:16:34.389Z,26.90
2023-04-09T16:19:37.400Z,23.13
2023-04-09T16:22:40.532Z,23.40
2023-04-09T16:25:44.846Z,22.10
2023-04-09T16:28:49.540Z,21.10
2023-04-09T16:31:52.795Z,19.17
2023-04-09T16:34:56.056Z,20.80
2023-04-09T16:37:59.501Z,21.20
2023-04-09T16:41:03.863Z,19.87
2023-04-09T16:44:07.265Z,20.83
2023-04-09T16:47:10.305Z,20.17
2023-04-09T16:50:13.743Z,19.40
2023-04-09T16:53:16.815Z,19.87
2023-04-09T16:56:21.186Z,18.53
2023-04-09T16:59:24.400Z,20.20
2023-04-09T17:02:27.706Z,20.27
2023-04-09T17:05:31.311Z,28.17
2023-04-09T17:08:36.401Z,26.67
2023-04-09T17:11:40.689Z,70.40
2023-04-09T17:14:44.467Z,25.77
2023-04-09T17:17:49.502Z,30.20
2023-04-09T17:20:53.695Z,26.17
2023-04-09T17:23:56.968Z,25.77
2023-04-09T17:27:01.284Z,24.83
2023-04-09T17:30:06.695Z,26.47
2023-04-09T17:33:09.972Z,27.93
2023-04-09T17:36:13.097Z,28.87
2023-04-09T17:39:16.154Z,28.87
2023-04-09T17:42:22.049Z,25.13
2023-04-09T17:45:25.135Z,27.30
2023-04-09T17:48:30.120Z,27.57
2023-04-09T17:51:34.441Z,28.23
2023-04-09T17:54:38.618Z,26.90
2023-04-09T17:57:42.974Z,27.13
2023-04-09T18:00:46.282Z,29.77
2023-04-09T18:03:49.642Z,29.53
2023-04-09T18:06:53.156Z,29.47
2023-04-09T18:09:56.656Z,31.30
2023-04-09T18:13:00.964Z,38.70
2023-04-09T18:16:09.794Z,43.83
2023-04-09T18:19:15.487Z,65.47
2023-04-09T18:22:18.650Z,90.43
2023-04-09T18:25:23.152Z,75.47
2023-04-09T18:28:28.009Z,91.27
2023-04-09T18:31:31.270Z,76.07
2023-04-09T18:34:38.105Z,58.20
2023-04-09T18:37:41.223Z,59.97
2023-04-09T18:40:45.420Z,60.87
2023-04-09T18:43:49.844Z,84.93
2023-04-09T18:46:53.006Z,73.00
2023-04-09T18:49:58.514Z,75.30
2023-04-09T18:53:04.797Z,58.43
2023-04-09T18:56:13.002Z,56.53
2023-04-09T18:59:17.914Z,57.67
2023-04-09T19:02:22.482Z,36.83
2023-04-09T19:05:29.543Z,41.13
2023-04-09T19:08:38.382Z,41.23
2023-04-09T19:11:43.541Z,37.67
2023-04-09T19:14:48.050Z,37.47
2023-04-09T19:17:52.151Z,37.23
2023-04-09T19:20:57.592Z,35.57
2023-04-09T19:24:06.248Z,42.43
2023-04-09T19:27:13.164Z,39.90
2023-04-09T19:30:22.059Z,40.17
2023-04-09T19:33:27.935Z,51.77
2023-04-09T19:36:42.699Z,45.70
2023-04-09T19:39:56.512Z,40.63
2023-04-09T19:43:01.779Z,40.70
2023-04-09T19:46:14.041Z,40.40
2023-04-09T19:49:23.485Z,36.20
2023-04-09T19:52:30.424Z,45.97
2023-04-09T19:55:33.419Z,37.50
2023-04-09T19:58:41.835Z,40.23
2023-04-09T20:01:53.024Z,41.90
2023-04-09T20:04:56.046Z,58.47
2023-04-09T20:07:59.298Z,55.37
2023-04-09T20:11:02.364Z,51.53
2023-04-09T20:14:05.396Z,61.33
2023-04-09T20:17:10.715Z,51.00
2023-04-09T20:20:13.837Z,50.50
2023-04-09T20:23:16.816Z,49.07
2023-04-09T20:26:19.844Z,46.03
2023-04-09T20:29:23.149Z,48.07
2023-04-09T20:32:27.617Z,54.63
2023-04-09T20:35:30.628Z,47.77
2023-04-09T20:38:33.704Z,52.93
2023-04-09T20:41:36.825Z,50.73
2023-04-09T20:44:39.803Z,46.27
2023-04-09T20:47:44.164Z,47.13
2023-04-09T20:50:47.130Z,49.77
2023-04-09T20:53:50.159Z,47.57
2023-04-09T20:56:53.176Z,51.80
2023-04-09T20:59:56.140Z,52.57
2023-04-09T21:03:00.839Z,48.13
2023-04-09T21:06:04.259Z,47.53
2023-04-09T21:09:07.434Z,46.53
2023-04-09T21:12:10.373Z,50.30
2023-04-09T21:15:13.468Z,55.07
2023-04-09T21:18:18.872Z,54.53
2023-04-09T21:21:21.941Z,52.77
2023-04-09T21:24:24.984Z,52.13
2023-04-09T21:27:27.957Z,52.50
2023-04-09T21:30:32.266Z,48.27
2023-04-09T21:33:36.618Z,54.10
2023-04-09T21:36:39.804Z,55.40
2023-04-09T21:39:42.767Z,53.67
2023-04-09T21:42:45.878Z,54.83
2023-04-09T21:45:48.939Z,47.57
2023-04-09T21:48:53.411Z,50.77
2023-04-09T21:51:58.832Z,52.67
2023-04-09T21:55:02.092Z,48.63
2023-04-09T21:58:05.289Z,52.13
2023-04-09T22:01:15.787Z,46.07
2023-04-09T22:04:27.097Z,48.23
2023-04-09T22:07:32.282Z,45.67
2023-04-09T22:10:35.821Z,48.27
2023-04-09T22:13:38.862Z,46.87
2023-04-09T22:16:42.204Z,40.67
2023-04-09T22:19:46.694Z,46.00
2023-04-09T22:22:49.868Z,46.93
2023-04-09T22:26:00.862Z,47.47
2023-04-09T22:29:05.716Z,51.83
2023-04-09T22:32:10.867Z,50.67
2023-04-09T22:35:18.402Z,45.33
2023-04-09T22:38:23.264Z,50.10
2023-04-09T22:41:26.410Z,44.83
2023-04-09T22:44:29.614Z,49.00
2023-04-09T22:47:32.722Z,42.80
2023-04-09T22:50:37.664Z,46.37
2023-04-09T22:53:41.084Z,47.70
2023-04-09T22:56:44.776Z,47.37
2023-04-09T22:59:48.462Z,49.67
2023-04-09T23:02:51.678Z,45.80
2023-04-09T23:05:56.311Z,42.10
2023-04-09T23:08:59.900Z,40.47
2023-04-09T23:12:03.267Z,50.83
2023-04-09T23:15:07.885Z,45.83
2023-04-09T23:18:11.096Z,42.60
2023-04-09T23:21:15.700Z,46.93
2023-04-09T23:24:19.259Z,45.27
2023-04-09T23:27:28.150Z,45.27
2023-04-09T23:30:32.252Z,35.63
2023-04-09T23:33:35.432Z,47.83
2023-04-09T23:36:40.233Z,39.33
2023-04-09T23:39:43.545Z,42.43
2023-04-09T23:42:47.917Z,42.00
2023-04-09T23:45:52.120Z,40.37
2023-04-09T23:48:55.330Z,40.40
2023-04-09T23:51:59.767Z,38.27
2023-04-09T23:55:03.064Z,38.17
2023-04-09T23:58:09.823Z,37.90
